RYR23ML LIMF-LICT
Flight info
| Callsign | RYR23ML |
|---|---|
| Flight time | 1h 17m |
| Altitude | 35000 |
| Route | LAGEN DCT EVROG DCT BAKRO DCT VELAD DCT TINTO DCT POKAV DCT BETOT DCT RUVIP DCT RONAB M740 ADUKA |
| Aircraft | B738/M-SDE2E3FGHIRWXY/LB1 |
Departure
| Time | 2026-05-05 08:30 |
|---|---|
| Airport | Turin Airport (LIMF) |
Arrival
| Time | 2026-05-05 09:48 |
|---|---|
| Airport | Vincenzo Florio Airport Trapani-Birgi (LICT) |
| Time | Latitude | Longitude | Altitude | Speed | Heading |
|---|---|---|---|---|---|
| 2026-05-05 08:08 | 45.19355 | 7.64475 | 994 ft | 0 kts | 232° |
| 2026-05-05 08:23 | 45.19356 | 7.64476 | 985 ft | 1 kts | 232° |
| 2026-05-05 08:23 | 45.19370 | 7.64502 | 993 ft | 2 kts | 230° |
| 2026-05-05 08:23 | 45.19385 | 7.64523 | 988 ft | 4 kts | 203° |
| 2026-05-05 08:24 | 45.19410 | 7.64527 | 985 ft | 4 kts | 175° |
| 2026-05-05 08:24 | 45.19420 | 7.64526 | 990 ft | 0 kts | 182° |
| 2026-05-05 08:26 | 45.19417 | 7.64526 | 990 ft | 4 kts | 182° |
| 2026-05-05 08:26 | 45.19378 | 7.64567 | 985 ft | 8 kts | 116° |
| 2026-05-05 08:26 | 45.19365 | 7.64653 | 985 ft | 10 kts | 68° |
| 2026-05-05 08:26 | 45.19429 | 7.64679 | 985 ft | 11 kts | 2° |
| 2026-05-05 08:27 | 45.19529 | 7.64685 | 988 ft | 19 kts | 2° |
| 2026-05-05 08:27 | 45.19680 | 7.64695 | 988 ft | 22 kts | 2° |
| 2026-05-05 08:27 | 45.19832 | 7.64680 | 987 ft | 22 kts | 1° |
| 2026-05-05 08:27 | 45.19980 | 7.64690 | 984 ft | 21 kts | 2° |
| 2026-05-05 08:28 | 45.20124 | 7.64700 | 989 ft | 20 kts | 2° |
| 2026-05-05 08:28 | 45.20264 | 7.64708 | 984 ft | 20 kts | 3° |
| 2026-05-05 08:28 | 45.20399 | 7.64717 | 985 ft | 19 kts | 2° |
| 2026-05-05 08:28 | 45.20551 | 7.64726 | 987 ft | 25 kts | 3° |
| 2026-05-05 08:29 | 45.20732 | 7.64738 | 988 ft | 24 kts | 2° |
| 2026-05-05 08:29 | 45.20864 | 7.64796 | 987 ft | 20 kts | 58° |
| 2026-05-05 08:29 | 45.20875 | 7.64958 | 981 ft | 13 kts | 90° |
| 2026-05-05 08:30 | 45.20583 | 7.64996 | 983 ft | 65 kts | 182° |
| 2026-05-05 08:30 | 45.19909 | 7.64953 | 979 ft | 127 kts | 182° |
| 2026-05-05 08:30 | 45.18862 | 7.64884 | 1092 ft | 166 kts | 184° |
| 2026-05-05 08:30 | 45.17695 | 7.64783 | 1796 ft | 170 kts | 183° |
| 2026-05-05 08:31 | 45.16505 | 7.64659 | 2514 ft | 172 kts | 183° |
| 2026-05-05 08:31 | 45.15309 | 7.64534 | 3311 ft | 172 kts | 184° |
| 2026-05-05 08:31 | 45.14130 | 7.64388 | 4114 ft | 170 kts | 184° |
| 2026-05-05 08:31 | 45.12950 | 7.64205 | 4794 ft | 175 kts | 185° |
| 2026-05-05 08:32 | 45.11646 | 7.64077 | 5242 ft | 200 kts | 179° |
| 2026-05-05 08:32 | 45.10169 | 7.64094 | 5477 ft | 224 kts | 179° |
| 2026-05-05 08:32 | 45.08531 | 7.64095 | 5746 ft | 245 kts | 179° |
| 2026-05-05 08:32 | 45.06817 | 7.64051 | 6353 ft | 253 kts | 180° |
| 2026-05-05 08:33 | 45.05025 | 7.64080 | 7013 ft | 261 kts | 168° |
| 2026-05-05 08:33 | 45.03399 | 7.65271 | 7575 ft | 272 kts | 140° |
| 2026-05-05 08:33 | 45.01988 | 7.67090 | 8352 ft | 277 kts | 139° |
| 2026-05-05 08:33 | 45.00598 | 7.68951 | 9177 ft | 280 kts | 139° |
| 2026-05-05 08:34 | 44.99153 | 7.70878 | 10029 ft | 284 kts | 140° |
| 2026-05-05 08:34 | 44.97697 | 7.72794 | 10489 ft | 300 kts | 140° |
| 2026-05-05 08:34 | 44.96091 | 7.74874 | 10689 ft | 325 kts | 140° |
| 2026-05-05 08:34 | 44.94386 | 7.77063 | 11191 ft | 336 kts | 141° |
| 2026-05-05 08:35 | 44.92635 | 7.79299 | 11881 ft | 343 kts | 141° |
| 2026-05-05 08:35 | 44.90808 | 7.81614 | 12062 ft | 365 kts | 141° |
| 2026-05-05 08:35 | 44.88866 | 7.84061 | 12228 ft | 384 kts | 141° |
| 2026-05-05 08:35 | 44.86832 | 7.86616 | 12559 ft | 397 kts | 141° |
| 2026-05-05 08:36 | 44.84752 | 7.89227 | 13136 ft | 402 kts | 141° |
| 2026-05-05 08:36 | 44.82656 | 7.91857 | 13805 ft | 405 kts | 141° |
| 2026-05-05 08:36 | 44.80541 | 7.94505 | 14394 ft | 408 kts | 141° |
| 2026-05-05 08:36 | 44.78414 | 7.97165 | 14972 ft | 411 kts | 141° |
| 2026-05-05 08:37 | 44.76268 | 7.99845 | 15553 ft | 413 kts | 142° |
| 2026-05-05 08:37 | 44.74112 | 8.02532 | 16150 ft | 416 kts | 142° |
| 2026-05-05 08:37 | 44.71937 | 8.05240 | 16696 ft | 419 kts | 142° |
| 2026-05-05 08:37 | 44.69744 | 8.07964 | 17218 ft | 423 kts | 142° |
| 2026-05-05 08:38 | 44.67525 | 8.10717 | 17734 ft | 427 kts | 143° |
| 2026-05-05 08:38 | 44.65290 | 8.13487 | 18282 ft | 430 kts | 143° |
| 2026-05-05 08:38 | 44.63044 | 8.16270 | 18760 ft | 432 kts | 143° |
| 2026-05-05 08:38 | 44.60782 | 8.19069 | 19226 ft | 435 kts | 143° |
| 2026-05-05 08:39 | 44.58508 | 8.21878 | 19681 ft | 438 kts | 143° |
| 2026-05-05 08:39 | 44.56213 | 8.24712 | 20126 ft | 441 kts | 143° |
| 2026-05-05 08:39 | 44.53905 | 8.27557 | 20571 ft | 443 kts | 143° |
| 2026-05-05 08:39 | 44.51579 | 8.30424 | 20992 ft | 446 kts | 143° |
| 2026-05-05 08:40 | 44.49240 | 8.33300 | 21408 ft | 449 kts | 143° |
| 2026-05-05 08:40 | 44.46889 | 8.36190 | 21809 ft | 451 kts | 142° |
| 2026-05-05 08:40 | 44.44560 | 8.39051 | 22246 ft | 452 kts | 142° |
| 2026-05-05 08:40 | 44.42187 | 8.41960 | 22587 ft | 455 kts | 142° |
| 2026-05-05 08:41 | 44.39798 | 8.44887 | 22938 ft | 458 kts | 142° |
| 2026-05-05 08:41 | 44.37394 | 8.47829 | 23291 ft | 461 kts | 142° |
| 2026-05-05 08:41 | 44.34978 | 8.50781 | 23645 ft | 463 kts | 142° |
| 2026-05-05 08:41 | 44.32546 | 8.53749 | 23947 ft | 465 kts | 142° |
| 2026-05-05 08:42 | 44.30107 | 8.56723 | 24249 ft | 467 kts | 143° |
| 2026-05-05 08:42 | 44.27652 | 8.59713 | 24432 ft | 472 kts | 143° |
| 2026-05-05 08:42 | 44.25161 | 8.62741 | 24578 ft | 477 kts | 143° |
| 2026-05-05 08:42 | 44.22658 | 8.65782 | 24882 ft | 478 kts | 143° |
| 2026-05-05 08:43 | 44.20151 | 8.68826 | 25208 ft | 478 kts | 143° |
| 2026-05-05 08:43 | 44.17637 | 8.71876 | 25456 ft | 480 kts | 143° |
| 2026-05-05 08:43 | 44.15113 | 8.74932 | 25702 ft | 482 kts | 143° |
| 2026-05-05 08:43 | 44.12577 | 8.77999 | 25923 ft | 484 kts | 143° |
| 2026-05-05 08:44 | 44.10034 | 8.81071 | 26122 ft | 485 kts | 143° |
| 2026-05-05 08:44 | 44.07484 | 8.84148 | 26360 ft | 485 kts | 143° |
| 2026-05-05 08:44 | 44.04926 | 8.87231 | 26539 ft | 488 kts | 143° |
| 2026-05-05 08:44 | 44.02360 | 8.90320 | 26787 ft | 488 kts | 143° |
| 2026-05-05 08:45 | 43.99797 | 8.93402 | 27104 ft | 486 kts | 143° |
| 2026-05-05 08:45 | 43.97243 | 8.96472 | 27436 ft | 485 kts | 143° |
| 2026-05-05 08:45 | 43.94689 | 8.99536 | 27744 ft | 485 kts | 143° |
| 2026-05-05 08:45 | 43.92136 | 9.02594 | 28039 ft | 485 kts | 144° |
| 2026-05-05 08:46 | 43.89584 | 9.05647 | 28357 ft | 484 kts | 144° |
| 2026-05-05 08:46 | 43.87034 | 9.08695 | 28676 ft | 484 kts | 144° |
| 2026-05-05 08:46 | 43.84483 | 9.11740 | 28869 ft | 486 kts | 144° |
| 2026-05-05 08:46 | 43.81911 | 9.14803 | 29006 ft | 489 kts | 144° |
| 2026-05-05 08:47 | 43.79364 | 9.17835 | 29285 ft | 489 kts | 144° |
| 2026-05-05 08:47 | 43.76791 | 9.20897 | 29659 ft | 487 kts | 144° |
| 2026-05-05 08:47 | 43.74225 | 9.23949 | 30015 ft | 486 kts | 144° |
| 2026-05-05 08:47 | 43.71663 | 9.26991 | 30273 ft | 486 kts | 144° |
| 2026-05-05 08:48 | 43.69098 | 9.30031 | 30497 ft | 486 kts | 144° |
| 2026-05-05 08:48 | 43.66525 | 9.33077 | 30730 ft | 487 kts | 144° |
| 2026-05-05 08:48 | 43.63956 | 9.36114 | 30978 ft | 486 kts | 145° |
| 2026-05-05 08:48 | 43.61380 | 9.39157 | 31163 ft | 488 kts | 145° |
| 2026-05-05 08:49 | 43.58799 | 9.42202 | 31377 ft | 488 kts | 145° |
| 2026-05-05 08:49 | 43.56216 | 9.45245 | 31639 ft | 488 kts | 145° |
| 2026-05-05 08:49 | 43.53638 | 9.48281 | 31865 ft | 488 kts | 144° |
| 2026-05-05 08:49 | 43.51054 | 9.51320 | 32052 ft | 489 kts | 145° |
| 2026-05-05 08:50 | 43.48465 | 9.54360 | 32289 ft | 489 kts | 145° |
| 2026-05-05 08:50 | 43.45878 | 9.57395 | 32557 ft | 488 kts | 145° |
| 2026-05-05 08:50 | 43.43293 | 9.60425 | 32819 ft | 488 kts | 145° |
| 2026-05-05 08:50 | 43.40709 | 9.63448 | 32978 ft | 490 kts | 145° |
| 2026-05-05 08:51 | 43.38105 | 9.66491 | 33104 ft | 492 kts | 145° |
| 2026-05-05 08:51 | 43.35499 | 9.69534 | 33335 ft | 491 kts | 145° |
| 2026-05-05 08:51 | 43.32898 | 9.72570 | 33625 ft | 490 kts | 145° |
| 2026-05-05 08:51 | 43.30303 | 9.75595 | 33887 ft | 489 kts | 146° |
| 2026-05-05 08:52 | 43.27707 | 9.78617 | 34083 ft | 489 kts | 146° |
| 2026-05-05 08:52 | 43.25110 | 9.81634 | 34267 ft | 489 kts | 146° |
| 2026-05-05 08:52 | 43.22502 | 9.84621 | 34471 ft | 488 kts | 146° |
| 2026-05-05 08:52 | 43.19888 | 9.87577 | 34727 ft | 486 kts | 147° |
| 2026-05-05 08:53 | 43.17175 | 9.90287 | 34905 ft | 480 kts | 154° |
| 2026-05-05 08:53 | 43.11382 | 9.94834 | 34970 ft | 481 kts | 157° |
| 2026-05-05 08:54 | 43.05546 | 9.99270 | 34971 ft | 479 kts | 156° |
| 2026-05-05 08:54 | 42.99755 | 10.03738 | 34976 ft | 477 kts | 156° |
| 2026-05-05 08:55 | 42.93994 | 10.08230 | 34969 ft | 476 kts | 156° |
| 2026-05-05 08:55 | 42.88244 | 10.12717 | 34968 ft | 476 kts | 156° |
| 2026-05-05 08:56 | 42.82494 | 10.17193 | 34972 ft | 476 kts | 156° |
| 2026-05-05 08:56 | 42.76740 | 10.21660 | 34958 ft | 477 kts | 156° |
| 2026-05-05 08:57 | 42.70969 | 10.26128 | 34958 ft | 477 kts | 156° |
| 2026-05-05 08:57 | 42.65229 | 10.30563 | 34983 ft | 478 kts | 156° |
| 2026-05-05 08:58 | 42.59439 | 10.35028 | 34973 ft | 479 kts | 156° |
| 2026-05-05 08:58 | 42.53606 | 10.39517 | 34961 ft | 479 kts | 156° |
| 2026-05-05 08:59 | 42.47849 | 10.43938 | 34980 ft | 479 kts | 156° |
| 2026-05-05 08:59 | 42.42052 | 10.48379 | 34981 ft | 479 kts | 156° |
| 2026-05-05 09:00 | 42.36254 | 10.52812 | 34981 ft | 478 kts | 156° |
| 2026-05-05 09:00 | 42.30460 | 10.57233 | 34984 ft | 478 kts | 156° |
| 2026-05-05 09:01 | 42.24659 | 10.61649 | 34993 ft | 479 kts | 157° |
| 2026-05-05 09:01 | 42.18853 | 10.66060 | 34993 ft | 479 kts | 157° |
| 2026-05-05 09:02 | 42.13041 | 10.70468 | 34992 ft | 479 kts | 157° |
| 2026-05-05 09:02 | 42.07226 | 10.74868 | 34992 ft | 479 kts | 157° |
| 2026-05-05 09:03 | 42.01276 | 10.78732 | 35009 ft | 471 kts | 165° |
| 2026-05-05 09:03 | 41.95164 | 10.81889 | 35000 ft | 470 kts | 166° |
| 2026-05-05 09:04 | 41.89051 | 10.85029 | 34990 ft | 470 kts | 165° |
| 2026-05-05 09:04 | 41.82961 | 10.88234 | 35016 ft | 470 kts | 165° |
| 2026-05-05 09:05 | 41.76887 | 10.91458 | 35018 ft | 469 kts | 165° |
| 2026-05-05 09:05 | 41.70814 | 10.94677 | 35021 ft | 469 kts | 165° |
| 2026-05-05 09:06 | 41.64749 | 10.97881 | 35017 ft | 468 kts | 165° |
| 2026-05-05 09:06 | 41.58734 | 11.01052 | 35020 ft | 467 kts | 165° |
| 2026-05-05 09:07 | 41.52691 | 11.04231 | 35033 ft | 466 kts | 165° |
| 2026-05-05 09:07 | 41.46657 | 11.07398 | 35032 ft | 466 kts | 165° |
| 2026-05-05 09:08 | 41.40628 | 11.10562 | 35030 ft | 465 kts | 165° |
| 2026-05-05 09:08 | 41.34609 | 11.13716 | 35037 ft | 465 kts | 165° |
| 2026-05-05 09:09 | 41.28595 | 11.16862 | 35044 ft | 464 kts | 165° |
| 2026-05-05 09:09 | 41.22580 | 11.20003 | 35021 ft | 464 kts | 166° |
| 2026-05-05 09:10 | 41.17593 | 11.22602 | 35035 ft | 462 kts | 166° |
| 2026-05-05 09:10 | 41.11616 | 11.25712 | 35045 ft | 461 kts | 166° |
| 2026-05-05 09:11 | 41.05647 | 11.28810 | 35043 ft | 460 kts | 166° |
| 2026-05-05 09:11 | 40.99690 | 11.31897 | 35028 ft | 460 kts | 166° |
| 2026-05-05 09:12 | 40.93714 | 11.34986 | 35050 ft | 462 kts | 166° |
| 2026-05-05 09:12 | 40.87710 | 11.38086 | 35060 ft | 464 kts | 166° |
| 2026-05-05 09:13 | 40.81683 | 11.41190 | 35062 ft | 466 kts | 166° |
| 2026-05-05 09:13 | 40.75631 | 11.44297 | 35044 ft | 468 kts | 166° |
| 2026-05-05 09:14 | 40.69539 | 11.47419 | 35056 ft | 471 kts | 166° |
| 2026-05-05 09:14 | 40.63422 | 11.50551 | 35058 ft | 473 kts | 166° |
| 2026-05-05 09:15 | 40.57281 | 11.53690 | 35071 ft | 474 kts | 166° |
| 2026-05-05 09:15 | 40.51133 | 11.56825 | 35058 ft | 474 kts | 166° |
| 2026-05-05 09:16 | 40.44975 | 11.59960 | 35066 ft | 475 kts | 166° |
| 2026-05-05 09:16 | 40.38807 | 11.63093 | 35074 ft | 475 kts | 166° |
| 2026-05-05 09:17 | 40.32637 | 11.66219 | 35073 ft | 475 kts | 166° |
| 2026-05-05 09:17 | 40.26472 | 11.69336 | 35062 ft | 475 kts | 166° |
| 2026-05-05 09:18 | 40.20302 | 11.72450 | 35073 ft | 475 kts | 166° |
| 2026-05-05 09:18 | 40.14132 | 11.75560 | 35076 ft | 476 kts | 166° |
| 2026-05-05 09:18 | 40.11033 | 11.77119 | 34828 ft | 479 kts | 166° |
| 2026-05-05 09:19 | 40.07919 | 11.78683 | 34470 ft | 479 kts | 166° |
| 2026-05-05 09:19 | 40.04815 | 11.80243 | 34062 ft | 476 kts | 166° |
| 2026-05-05 09:19 | 40.01737 | 11.81781 | 33612 ft | 473 kts | 166° |
| 2026-05-05 09:19 | 39.98665 | 11.83308 | 33198 ft | 472 kts | 166° |
| 2026-05-05 09:20 | 39.95605 | 11.84827 | 32776 ft | 471 kts | 166° |
| 2026-05-05 09:20 | 39.92545 | 11.86346 | 32378 ft | 470 kts | 166° |
| 2026-05-05 09:20 | 39.89493 | 11.87852 | 31964 ft | 468 kts | 167° |
| 2026-05-05 09:20 | 39.86389 | 11.88972 | 31579 ft | 459 kts | 175° |
| 2026-05-05 09:21 | 39.83279 | 11.89437 | 31194 ft | 456 kts | 184° |
| 2026-05-05 09:21 | 39.80089 | 11.89556 | 30790 ft | 461 kts | 184° |
| 2026-05-05 09:21 | 39.76881 | 11.89657 | 30369 ft | 460 kts | 184° |
| 2026-05-05 09:21 | 39.73687 | 11.89765 | 29910 ft | 459 kts | 183° |
| 2026-05-05 09:22 | 39.70496 | 11.89887 | 29425 ft | 458 kts | 183° |
| 2026-05-05 09:22 | 39.67318 | 11.90020 | 28983 ft | 457 kts | 183° |
| 2026-05-05 09:22 | 39.64128 | 11.90160 | 28547 ft | 460 kts | 182° |
| 2026-05-05 09:22 | 39.60910 | 11.90305 | 28090 ft | 465 kts | 182° |
| 2026-05-05 09:23 | 39.57659 | 11.90455 | 27628 ft | 468 kts | 182° |
| 2026-05-05 09:23 | 39.54405 | 11.90607 | 27176 ft | 468 kts | 182° |
| 2026-05-05 09:23 | 39.51149 | 11.90760 | 26726 ft | 468 kts | 182° |
| 2026-05-05 09:23 | 39.47895 | 11.90913 | 26275 ft | 468 kts | 182° |
| 2026-05-05 09:24 | 39.44638 | 11.91064 | 25829 ft | 469 kts | 181° |
| 2026-05-05 09:24 | 39.41378 | 11.91216 | 25370 ft | 469 kts | 181° |
| 2026-05-05 09:24 | 39.38111 | 11.91366 | 24926 ft | 470 kts | 181° |
| 2026-05-05 09:24 | 39.34849 | 11.91517 | 24476 ft | 469 kts | 181° |
| 2026-05-05 09:25 | 39.31600 | 11.91667 | 24031 ft | 463 kts | 181° |
| 2026-05-05 09:25 | 39.28400 | 11.91817 | 23574 ft | 456 kts | 181° |
| 2026-05-05 09:25 | 39.25243 | 11.91963 | 23068 ft | 453 kts | 181° |
| 2026-05-05 09:25 | 39.22101 | 11.92107 | 22603 ft | 451 kts | 181° |
| 2026-05-05 09:26 | 39.18977 | 11.92250 | 22150 ft | 448 kts | 181° |
| 2026-05-05 09:26 | 39.15868 | 11.92392 | 21723 ft | 446 kts | 181° |
| 2026-05-05 09:26 | 39.12770 | 11.92534 | 21281 ft | 445 kts | 181° |
| 2026-05-05 09:26 | 39.09686 | 11.92674 | 20848 ft | 443 kts | 181° |
| 2026-05-05 09:27 | 39.06611 | 11.92814 | 20425 ft | 441 kts | 181° |
| 2026-05-05 09:27 | 39.03548 | 11.92954 | 19992 ft | 439 kts | 181° |
| 2026-05-05 09:27 | 39.00500 | 11.93093 | 19562 ft | 437 kts | 181° |
| 2026-05-05 09:27 | 38.97470 | 11.93232 | 19143 ft | 434 kts | 181° |
| 2026-05-05 09:28 | 38.94497 | 11.93368 | 18712 ft | 432 kts | 181° |
| 2026-05-05 09:28 | 38.91500 | 11.93504 | 18281 ft | 430 kts | 181° |
| 2026-05-05 09:28 | 38.88522 | 11.93639 | 17802 ft | 427 kts | 181° |
| 2026-05-05 09:28 | 38.85559 | 11.93774 | 17355 ft | 424 kts | 181° |
| 2026-05-05 09:29 | 38.82623 | 11.93907 | 16932 ft | 421 kts | 181° |
| 2026-05-05 09:29 | 38.79700 | 11.94040 | 16510 ft | 418 kts | 181° |
| 2026-05-05 09:29 | 38.76804 | 11.94171 | 16097 ft | 416 kts | 181° |
| 2026-05-05 09:29 | 38.73924 | 11.94301 | 15674 ft | 411 kts | 181° |
| 2026-05-05 09:30 | 38.71086 | 11.94431 | 15116 ft | 406 kts | 182° |
| 2026-05-05 09:30 | 38.68286 | 11.94558 | 14495 ft | 401 kts | 182° |
| 2026-05-05 09:30 | 38.65522 | 11.94683 | 13727 ft | 392 kts | 182° |
| 2026-05-05 09:30 | 38.62816 | 11.94805 | 12593 ft | 388 kts | 182° |
| 2026-05-05 09:31 | 38.60154 | 11.94926 | 11987 ft | 373 kts | 182° |
| 2026-05-05 09:31 | 38.57652 | 11.95067 | 11834 ft | 349 kts | 178° |
| 2026-05-05 09:31 | 38.55353 | 11.95842 | 11676 ft | 338 kts | 159° |
| 2026-05-05 09:31 | 38.53383 | 11.97358 | 11568 ft | 323 kts | 151° |
| 2026-05-05 09:32 | 38.51576 | 11.98934 | 11451 ft | 306 kts | 150° |
| 2026-05-05 09:32 | 38.49849 | 12.00446 | 11323 ft | 296 kts | 150° |
| 2026-05-05 09:32 | 38.48174 | 12.01899 | 11142 ft | 286 kts | 150° |
| 2026-05-05 09:32 | 38.46533 | 12.03309 | 10742 ft | 284 kts | 151° |
| 2026-05-05 09:33 | 38.44897 | 12.04705 | 10320 ft | 283 kts | 151° |
| 2026-05-05 09:33 | 38.43257 | 12.06100 | 10033 ft | 283 kts | 150° |
| 2026-05-05 09:33 | 38.41641 | 12.07473 | 9757 ft | 276 kts | 150° |
| 2026-05-05 09:33 | 38.40043 | 12.08829 | 9271 ft | 276 kts | 150° |
| 2026-05-05 09:34 | 38.38438 | 12.10187 | 8813 ft | 278 kts | 150° |
| 2026-05-05 09:34 | 38.36851 | 12.11530 | 8577 ft | 276 kts | 150° |
| 2026-05-05 09:34 | 38.35253 | 12.12859 | 8337 ft | 272 kts | 154° |
| 2026-05-05 09:34 | 38.33583 | 12.13965 | 8050 ft | 270 kts | 158° |
| 2026-05-05 09:35 | 38.31885 | 12.14975 | 7782 ft | 268 kts | 159° |
| 2026-05-05 09:35 | 38.28518 | 12.16954 | 7148 ft | 268 kts | 158° |
| 2026-05-05 09:35 | 38.26830 | 12.17956 | 6955 ft | 267 kts | 158° |
| 2026-05-05 09:36 | 38.25158 | 12.18955 | 6784 ft | 264 kts | 157° |
| 2026-05-05 09:36 | 38.23518 | 12.19940 | 6668 ft | 258 kts | 157° |
| 2026-05-05 09:36 | 38.21890 | 12.20921 | 6385 ft | 260 kts | 157° |
| 2026-05-05 09:36 | 38.20255 | 12.21908 | 6082 ft | 260 kts | 157° |
| 2026-05-05 09:37 | 38.18630 | 12.22889 | 5848 ft | 258 kts | 157° |
| 2026-05-05 09:37 | 38.17010 | 12.23868 | 5552 ft | 258 kts | 157° |
| 2026-05-05 09:37 | 38.15397 | 12.24843 | 5244 ft | 254 kts | 157° |
| 2026-05-05 09:37 | 38.13812 | 12.25801 | 4873 ft | 251 kts | 157° |
| 2026-05-05 09:38 | 38.12221 | 12.26761 | 4298 ft | 255 kts | 156° |
| 2026-05-05 09:38 | 38.10613 | 12.27732 | 3766 ft | 257 kts | 156° |
| 2026-05-05 09:38 | 38.08992 | 12.28710 | 3217 ft | 260 kts | 155° |
| 2026-05-05 09:38 | 38.07349 | 12.29701 | 2687 ft | 261 kts | 155° |
| 2026-05-05 09:39 | 38.05731 | 12.30678 | 2324 ft | 255 kts | 155° |
| 2026-05-05 09:39 | 38.04172 | 12.31619 | 2201 ft | 239 kts | 155° |
| 2026-05-05 09:39 | 38.02725 | 12.32492 | 2165 ft | 222 kts | 155° |
| 2026-05-05 09:39 | 38.01384 | 12.33299 | 2151 ft | 205 kts | 156° |
| 2026-05-05 09:40 | 38.00141 | 12.34046 | 2187 ft | 192 kts | 155° |
| 2026-05-05 09:40 | 37.99027 | 12.34898 | 2170 ft | 185 kts | 133° |
| 2026-05-05 09:40 | 37.98663 | 12.36367 | 2158 ft | 175 kts | 82° |
| 2026-05-05 09:40 | 37.99118 | 12.37782 | 2141 ft | 175 kts | 78° |
| 2026-05-05 09:41 | 37.98908 | 12.39173 | 1969 ft | 176 kts | 140° |
| 2026-05-05 09:41 | 37.97678 | 12.39629 | 2063 ft | 199 kts | 188° |
| 2026-05-05 09:41 | 37.96465 | 12.38825 | 2007 ft | 196 kts | 213° |
| 2026-05-05 09:41 | 37.95418 | 12.37825 | 1965 ft | 180 kts | 213° |
| 2026-05-05 09:42 | 37.94465 | 12.36864 | 2104 ft | 179 kts | 224° |
| 2026-05-05 09:42 | 37.94001 | 12.35416 | 2148 ft | 186 kts | 265° |
| 2026-05-05 09:42 | 37.94372 | 12.33796 | 2189 ft | 201 kts | 296° |
| 2026-05-05 09:42 | 37.95136 | 12.32289 | 2191 ft | 203 kts | 300° |
| 2026-05-05 09:43 | 37.95902 | 12.30804 | 2171 ft | 201 kts | 305° |
| 2026-05-05 09:43 | 37.97040 | 12.29862 | 2160 ft | 194 kts | 354° |
| 2026-05-05 09:43 | 37.98243 | 12.30263 | 2168 ft | 177 kts | 49° |
| 2026-05-05 09:43 | 37.98880 | 12.31563 | 2211 ft | 176 kts | 68° |
| 2026-05-05 09:44 | 37.99243 | 12.32995 | 2181 ft | 165 kts | 94° |
| 2026-05-05 09:44 | 37.99068 | 12.34398 | 2160 ft | 159 kts | 120° |
| 2026-05-05 09:44 | 37.98537 | 12.35561 | 2146 ft | 153 kts | 126° |
| 2026-05-05 09:44 | 37.97959 | 12.36682 | 2184 ft | 154 kts | 125° |
| 2026-05-05 09:45 | 37.97356 | 12.37833 | 2195 ft | 156 kts | 126° |
| 2026-05-05 09:45 | 37.96771 | 12.38984 | 2169 ft | 157 kts | 124° |
| 2026-05-05 09:45 | 37.96221 | 12.40194 | 2054 ft | 159 kts | 123° |
| 2026-05-05 09:45 | 37.95653 | 12.41376 | 1814 ft | 156 kts | 127° |
| 2026-05-05 09:46 | 37.95011 | 12.42507 | 1252 ft | 162 kts | 128° |
| 2026-05-05 09:46 | 37.94336 | 12.43649 | 783 ft | 160 kts | 129° |
| 2026-05-05 09:46 | 37.93665 | 12.44727 | 507 ft | 147 kts | 131° |
| 2026-05-05 09:46 | 37.93067 | 12.45692 | 325 ft | 134 kts | 130° |
| 2026-05-05 09:47 | 37.92486 | 12.46621 | 192 ft | 135 kts | 130° |
| 2026-05-05 09:47 | 37.91911 | 12.47553 | 51 ft | 132 kts | 131° |
| 2026-05-05 09:47 | 37.91357 | 12.48448 | 27 ft | 116 kts | 128° |
| 2026-05-05 09:47 | 37.90951 | 12.49107 | 26 ft | 73 kts | 128° |
| 2026-05-05 09:48 | 37.90723 | 12.49474 | 33 ft | 40 kts | 127° |
| 2026-05-05 09:48 | 37.90597 | 12.49680 | 34 ft | 21 kts | 128° |
| 2026-05-05 09:48 | 37.90496 | 12.49727 | 35 ft | 16 kts | 209° |
| 2026-05-05 09:48 | 37.90405 | 12.49667 | 33 ft | 15 kts | 159° |
| 2026-05-05 09:49 | 37.90396 | 12.49674 | 32 ft | 1 kts | 146° |
| 2026-05-05 09:49 | 37.90367 | 12.49715 | 32 ft | 13 kts | 126° |
| 2026-05-05 09:49 | 37.90294 | 12.49722 | 28 ft | 13 kts | 193° |
| 2026-05-05 09:49 | 37.90269 | 12.49724 | 29 ft | 7 kts | 179° |
| 2026-05-05 09:50 | 37.90247 | 12.49676 | 29 ft | 4 kts | 261° |
| 2026-05-05 09:50 | 37.90246 | 12.49669 | 29 ft | 1 kts | 261° |
| 2026-05-05 09:50 | 37.90245 | 12.49667 | 29 ft | 0 kts | 261° |